Time;durP1;ratioP1;P1;durP2;ratioP2;P2;SDS_P1;SDS_P2;PMS_P1;PMS_P2;Temp;Humidity;BMP_temperature;BMP_pressure;BME280_temperature;BME280_humidity;BME280_pressure;Samples;Min_cycle;Max_cycle;Signal;HPM_P1;HPM_P2
2020/12/17 00:00:22;;;;;;;23.00;14.47;;;5.90;99.90;;;;;;5033995;28;20438;-72
2020/12/17 00:02:48;;;;;;;24.40;16.27;;;5.90;99.90;;;;;;5035113;28;20239;-72
2020/12/17 00:05:13;;;;;;;21.37;14.50;;;5.90;99.90;;;;;;5035968;28;20449;-73
2020/12/17 00:07:39;;;;;;;19.03;13.60;;;5.90;99.90;;;;;;5035763;28;20506;-72
2020/12/17 00:10:07;;;;;;;22.50;14.60;;;5.90;99.90;;;;;;5035161;28;20588;-72
2020/12/17 00:12:41;;;;;;;24.77;14.80;;;5.90;99.90;;;;;;5034620;28;20417;-72
2020/12/17 00:15:09;;;;;;;20.97;14.23;;;5.80;99.90;;;;;;5035132;28;20418;-73
2020/12/17 00:17:40;;;;;;;23.90;14.53;;;5.80;99.90;;;;;;5035479;28;20634;-73
2020/12/17 00:20:05;;;;;;;23.47;14.80;;;5.80;99.90;;;;;;5035013;28;20453;-73
2020/12/17 00:22:39;;;;;;;20.90;14.50;;;5.80;99.90;;;;;;5034543;28;20453;-73
2020/12/17 00:25:05;;;;;;;19.93;14.43;;;5.80;99.90;;;;;;5034737;28;20512;-73
2020/12/17 00:27:31;;;;;;;22.30;15.27;;;5.70;99.90;;;;;;5034551;28;20821;-73
2020/12/17 00:29:57;;;;;;;25.37;14.27;;;5.70;99.90;;;;;;5034615;28;20430;-73
2020/12/17 00:32:22;;;;;;;20.90;14.80;;;5.70;99.90;;;;;;5034428;28;20167;-73
2020/12/17 00:34:48;;;;;;;24.87;15.07;;;5.60;99.90;;;;;;5034640;28;20534;-73
2020/12/17 00:37:13;;;;;;;17.77;13.70;;;5.60;99.90;;;;;;5034392;28;20175;-72
2020/12/17 00:39:39;;;;;;;19.80;14.30;;;5.60;99.90;;;;;;5034275;28;20188;-72
2020/12/17 00:42:04;;;;;;;19.43;13.13;;;5.70;99.90;;;;;;5034366;28;20175;-72
2020/12/17 00:44:31;;;;;;;23.87;16.07;;;5.70;99.90;;;;;;5034013;28;20562;-72
2020/12/17 00:46:56;;;;;;;21.47;16.07;;;5.70;99.90;;;;;;5034081;28;20182;-72
2020/12/17 00:49:22;;;;;;;22.20;15.63;;;5.70;99.90;;;;;;5034178;28;20430;-72
2020/12/17 00:51:47;;;;;;;20.73;14.60;;;5.70;99.90;;;;;;5034104;28;20175;-73
2020/12/17 00:54:13;;;;;;;19.17;14.37;;;5.60;99.90;;;;;;5033939;28;20199;-73
2020/12/17 00:56:47;;;;;;;27.00;15.27;;;5.70;99.90;;;;;;5034004;28;20180;-72
2020/12/17 00:59:13;;;;;;;19.90;14.07;;;5.70;99.90;;;;;;5033987;28;20269;-72
2020/12/17 01:01:39;;;;;;;23.77;16.10;;;5.70;99.90;;;;;;5034058;28;20911;-72
2020/12/17 01:04:05;;;;;;;21.07;14.27;;;5.60;99.90;;;;;;5033614;28;20211;-73
2020/12/17 01:06:30;;;;;;;23.57;15.37;;;5.70;99.90;;;;;;5033819;28;20164;-73
2020/12/17 01:08:55;;;;;;;23.53;14.20;;;5.70;99.90;;;;;;5033675;28;20275;-72
2020/12/17 01:11:32;;;;;;;21.73;14.63;;;5.60;99.90;;;;;;5032526;28;20168;-72
2020/12/17 01:13:58;;;;;;;21.47;14.60;;;5.70;99.90;;;;;;5032191;28;20179;-72
2020/12/17 01:16:23;;;;;;;23.17;15.40;;;5.70;99.90;;;;;;5034045;28;20414;-72
2020/12/17 01:18:49;;;;;;;24.60;13.57;;;5.60;99.90;;;;;;5033735;28;20436;-73
2020/12/17 01:21:17;;;;;;;19.10;13.80;;;5.70;99.90;;;;;;5033731;28;20175;-72
2020/12/17 01:23:42;;;;;;;22.10;14.57;;;5.70;99.90;;;;;;5033952;28;20468;-72
2020/12/17 01:26:09;;;;;;;24.80;16.00;;;5.70;99.90;;;;;;5033411;28;20402;-72
2020/12/17 01:28:35;;;;;;;25.40;13.23;;;5.70;99.90;;;;;;5033688;28;20200;-72
2020/12/17 01:31:11;;;;;;;19.83;13.80;;;5.70;99.90;;;;;;5033762;28;20410;-73
2020/12/17 01:33:38;;;;;;;21.07;13.97;;;5.70;99.90;;;;;;5034370;28;20417;-73
2020/12/17 01:36:05;;;;;;;21.73;14.90;;;5.70;99.90;;;;;;5033420;28;20414;-73
2020/12/17 01:38:32;;;;;;;26.57;14.67;;;5.70;99.90;;;;;;5033232;28;20434;-73
2020/12/17 01:40:58;;;;;;;20.47;14.80;;;5.70;99.90;;;;;;5033285;28;20414;-73
2020/12/17 01:43:24;;;;;;;20.43;13.63;;;5.70;99.90;;;;;;5033128;28;20465;-72
2020/12/17 01:45:49;;;;;;;19.50;13.40;;;5.80;99.90;;;;;;5032835;28;20410;-73
2020/12/17 01:48:16;;;;;;;20.10;14.33;;;5.70;99.90;;;;;;5032843;28;20250;-73
2020/12/17 01:50:44;;;;;;;22.23;14.17;;;5.70;99.90;;;;;;5033101;28;20218;-73
2020/12/17 01:53:10;;;;;;;21.30;14.63;;;5.60;99.90;;;;;;5033070;28;20453;-73
2020/12/17 01:55:35;;;;;;;19.73;14.10;;;5.60;99.90;;;;;;5032804;28;20406;-73
2020/12/17 01:58:04;;;;;;;21.43;14.43;;;5.70;99.90;;;;;;5032866;28;20179;-73
2020/12/17 02:00:34;;;;;;;20.47;13.73;;;5.70;99.90;;;;;;5032855;28;20259;-73
2020/12/17 02:03:00;;;;;;;20.70;13.03;;;5.60;99.90;;;;;;5032601;28;20507;-73
2020/12/17 02:05:25;;;;;;;22.80;14.63;;;5.70;99.90;;;;;;5032834;28;20481;-73
2020/12/17 02:07:51;;;;;;;22.70;14.93;;;5.70;99.90;;;;;;5032419;28;20939;-73
2020/12/17 02:10:17;;;;;;;22.43;14.73;;;5.50;99.90;;;;;;5032361;28;20188;-73
2020/12/17 02:12:46;;;;;;;23.60;13.80;;;5.50;99.90;;;;;;5032541;28;20172;-72
2020/12/17 02:15:12;;;;;;;21.70;16.10;;;5.40;99.90;;;;;;5032673;28;20414;-73
2020/12/17 02:17:38;;;;;;;21.70;15.47;;;5.40;99.90;;;;;;5032060;28;20415;-73
2020/12/17 02:20:06;;;;;;;27.00;16.40;;;5.30;99.90;;;;;;5032402;28;20430;-73
2020/12/17 02:22:32;;;;;;;20.53;14.63;;;5.20;99.90;;;;;;5032759;28;20567;-71
2020/12/17 02:24:57;;;;;;;21.23;14.90;;;5.10;99.90;;;;;;5032658;28;20402;-72
2020/12/17 02:27:23;;;;;;;21.77;14.73;;;5.10;99.90;;;;;;5032206;28;20159;-72
2020/12/17 02:29:48;;;;;;;21.03;13.77;;;5.10;99.90;;;;;;5032325;28;20554;-72
2020/12/17 02:32:15;;;;;;;25.10;14.83;;;5.10;99.90;;;;;;5032280;28;20171;-72
2020/12/17 02:34:41;;;;;;;19.67;14.90;;;5.00;99.90;;;;;;5032447;28;20163;-72
2020/12/17 02:37:08;;;;;;;18.33;13.80;;;5.00;99.90;;;;;;5032166;28;20525;-72
2020/12/17 02:39:33;;;;;;;23.00;14.93;;;5.00;99.90;;;;;;5032186;28;20669;-72
2020/12/17 02:41:59;;;;;;;20.00;14.90;;;4.90;99.90;;;;;;5032346;28;20421;-72
2020/12/17 02:44:28;;;;;;;23.63;15.87;;;4.90;99.90;;;;;;5032259;28;20199;-72
2020/12/17 02:46:53;;;;;;;24.13;16.30;;;4.90;99.90;;;;;;5031745;28;20226;-72
2020/12/17 02:49:19;;;;;;;26.90;16.93;;;4.90;99.90;;;;;;5032045;28;20422;-72
2020/12/17 02:51:44;;;;;;;20.80;14.57;;;4.90;99.90;;;;;;5032376;28;20250;-72
2020/12/17 02:54:10;;;;;;;27.03;16.03;;;4.80;99.90;;;;;;5031953;28;20167;-71
2020/12/17 02:56:35;;;;;;;26.07;16.33;;;4.80;99.90;;;;;;5030415;28;20237;-72
2020/12/17 02:59:01;;;;;;;22.07;16.10;;;4.80;99.90;;;;;;5031581;28;20668;-72
2020/12/17 03:01:27;;;;;;;24.90;15.13;;;4.80;99.90;;;;;;5031983;28;20250;-72
2020/12/17 03:03:52;;;;;;;24.57;16.60;;;4.80;99.90;;;;;;5031984;28;20537;-72
2020/12/17 03:06:18;;;;;;;26.60;16.83;;;4.80;99.90;;;;;;5032429;28;20258;-71
2020/12/17 03:08:44;;;;;;;25.87;16.97;;;4.70;99.90;;;;;;5031541;28;20656;-72
2020/12/17 03:11:09;;;;;;;18.70;14.60;;;4.70;99.90;;;;;;5031729;28;20442;-72
2020/12/17 03:13:35;;;;;;;25.20;15.67;;;4.70;99.90;;;;;;5032051;28;20507;-72
2020/12/17 03:16:00;;;;;;;24.57;15.73;;;4.70;99.90;;;;;;5032426;28;20581;-72
2020/12/17 03:18:26;;;;;;;20.77;14.80;;;4.70;99.90;;;;;;5031565;28;20171;-72
2020/12/17 03:20:51;;;;;;;23.50;16.33;;;4.70;99.90;;;;;;5031933;28;20179;-72
2020/12/17 03:23:17;;;;;;;22.20;16.00;;;4.60;99.90;;;;;;5035162;28;20298;-72
2020/12/17 03:25:42;;;;;;;24.40;15.83;;;4.60;99.90;;;;;;5036217;28;20171;-72
2020/12/17 03:28:08;;;;;;;24.50;16.07;;;4.60;99.90;;;;;;5035172;28;20249;-72
2020/12/17 03:30:33;;;;;;;21.97;16.07;;;4.60;99.90;;;;;;5037033;28;20194;-73
2020/12/17 03:32:59;;;;;;;23.90;16.57;;;4.60;99.90;;;;;;5039428;28;20190;-72
2020/12/17 03:35:25;;;;;;;24.33;16.00;;;4.60;99.90;;;;;;5038283;28;20225;-72
2020/12/17 03:37:50;;;;;;;29.90;16.67;;;4.60;99.90;;;;;;5037146;28;20172;-72
2020/12/17 03:40:16;;;;;;;26.13;15.47;;;4.50;99.90;;;;;;5035657;28;20514;-73
2020/12/17 03:42:41;;;;;;;23.20;16.03;;;4.50;99.90;;;;;;5036076;28;20204;-73
2020/12/17 03:45:07;;;;;;;23.27;14.70;;;4.50;99.90;;;;;;5035476;28;20759;-72
2020/12/17 03:47:32;;;;;;;29.33;16.90;;;4.40;99.90;;;;;;5035296;28;20176;-72
2020/12/17 03:49:58;;;;;;;24.37;16.70;;;4.50;99.90;;;;;;5035287;28;20191;-72
2020/12/17 03:52:23;;;;;;;24.03;15.70;;;4.50;99.90;;;;;;5035478;28;20233;-73
2020/12/17 03:54:48;;;;;;;27.93;18.10;;;4.40;99.90;;;;;;5035178;28;20183;-72
2020/12/17 03:57:14;;;;;;;26.00;16.20;;;4.40;99.90;;;;;;5035155;28;20244;-72
2020/12/17 03:59:39;;;;;;;22.40;17.60;;;4.40;99.90;;;;;;5034795;28;20191;-72
2020/12/17 04:02:05;;;;;;;23.50;17.03;;;4.30;99.90;;;;;;5035200;28;20504;-73
2020/12/17 04:04:32;;;;;;;29.23;16.00;;;4.40;99.90;;;;;;5035276;28;20208;-73
2020/12/17 04:06:58;;;;;;;28.73;16.33;;;4.30;99.90;;;;;;5035120;28;20175;-73
2020/12/17 04:09:23;;;;;;;26.50;16.50;;;4.30;99.90;;;;;;5034648;28;20446;-72
2020/12/17 04:11:49;;;;;;;26.23;17.30;;;4.30;99.90;;;;;;5035206;28;20178;-73
2020/12/17 04:14:14;;;;;;;25.70;17.13;;;4.30;99.90;;;;;;5035213;28;20184;-72
2020/12/17 04:16:40;;;;;;;26.73;17.00;;;4.30;99.90;;;;;;5034992;28;20179;-72
2020/12/17 04:19:06;;;;;;;25.73;16.17;;;4.20;99.90;;;;;;5034756;28;20605;-73
2020/12/17 04:21:31;;;;;;;25.40;16.60;;;4.20;99.90;;;;;;5034658;28;20258;-72
2020/12/17 04:23:56;;;;;;;28.27;15.87;;;4.20;99.90;;;;;;5034536;28;20214;-72
2020/12/17 04:26:22;;;;;;;26.97;17.00;;;4.20;99.90;;;;;;5034595;28;20600;-72
2020/12/17 04:28:47;;;;;;;28.13;15.57;;;4.20;99.90;;;;;;5034640;28;20187;-73
2020/12/17 04:31:13;;;;;;;28.03;17.53;;;4.10;99.90;;;;;;5034482;28;20163;-73
2020/12/17 04:33:38;;;;;;;23.17;17.17;;;4.20;99.90;;;;;;5034112;28;20179;-74
2020/12/17 04:36:04;;;;;;;28.70;17.80;;;4.20;99.90;;;;;;5034614;28;20254;-72
2020/12/17 04:38:29;;;;;;;25.43;17.10;;;4.10;99.90;;;;;;5034682;28;20179;-73
2020/12/17 04:40:55;;;;;;;33.80;19.40;;;4.20;99.90;;;;;;5034395;28;20190;-73
2020/12/17 04:43:21;;;;;;;30.57;17.67;;;4.20;99.90;;;;;;5034522;28;20227;-73
2020/12/17 04:45:46;;;;;;;28.27;19.33;;;4.10;99.90;;;;;;5034404;28;20576;-72
2020/12/17 04:48:16;;;;;;;28.53;18.40;;;4.10;99.90;;;;;;5033024;28;20167;-72
2020/12/17 04:50:46;;;;;;;25.90;16.37;;;4.10;99.90;;;;;;5033030;28;20167;-72
2020/12/17 04:53:15;;;;;;;31.10;18.70;;;4.10;99.90;;;;;;5034340;28;20750;-71
2020/12/17 04:55:42;;;;;;;24.33;17.07;;;4.10;99.90;;;;;;5034483;28;20410;-72
2020/12/17 04:58:12;;;;;;;26.40;16.87;;;4.10;99.90;;;;;;5034029;28;20413;-73
2020/12/17 05:00:41;;;;;;;25.17;17.83;;;4.10;99.90;;;;;;5034110;28;20941;-73
2020/12/17 05:03:12;;;;;;;26.47;17.40;;;4.00;99.90;;;;;;5034068;28;21017;-73
2020/12/17 05:05:41;;;;;;;23.67;15.23;;;4.10;99.90;;;;;;5033426;28;20409;-72
2020/12/17 05:08:10;;;;;;;24.53;15.80;;;4.00;99.90;;;;;;5033959;28;20528;-72
2020/12/17 05:10:41;;;;;;;29.93;18.20;;;4.00;99.90;;;;;;5032757;28;20426;-72
2020/12/17 05:13:06;;;;;;;25.17;15.70;;;4.00;99.90;;;;;;5033610;28;20572;-73
2020/12/17 05:15:32;;;;;;;26.50;16.63;;;4.00;99.90;;;;;;5034003;28;20565;-73
2020/12/17 05:17:57;;;;;;;24.63;16.00;;;4.00;99.90;;;;;;5033920;28;20172;-72
2020/12/17 05:20:26;;;;;;;30.43;17.53;;;4.00;99.90;;;;;;5032213;28;20199;-73
2020/12/17 05:22:52;;;;;;;27.57;17.30;;;4.00;99.90;;;;;;5033728;28;20191;-73
2020/12/17 05:25:18;;;;;;;31.30;16.70;;;4.00;99.90;;;;;;5033503;28;20407;-72
2020/12/17 05:27:44;;;;;;;23.97;17.27;;;3.90;99.90;;;;;;5033684;28;20406;-72
2020/12/17 05:30:12;;;;;;;24.07;15.90;;;3.90;99.90;;;;;;5033420;28;20434;-71
2020/12/17 05:32:41;;;;;;;29.67;18.60;;;3.90;99.90;;;;;;5032053;28;20168;-72
2020/12/17 05:35:16;;;;;;;26.70;16.57;;;3.90;99.90;;;;;;5033521;28;20899;-72
2020/12/17 05:37:42;;;;;;;33.00;19.40;;;3.80;99.90;;;;;;5032204;28;20410;-72
2020/12/17 05:40:08;;;;;;;27.47;17.77;;;3.80;99.90;;;;;;5033615;28;20941;-73
2020/12/17 05:42:33;;;;;;;21.83;15.67;;;3.80;99.90;;;;;;5033086;28;20545;-73
2020/12/17 05:44:58;;;;;;;37.23;19.97;;;3.90;99.90;;;;;;5032685;28;20172;-71
2020/12/17 05:47:24;;;;;;;24.73;16.40;;;3.90;99.90;;;;;;5032678;28;20186;-71
2020/12/17 05:49:49;;;;;;;29.73;17.60;;;3.80;99.90;;;;;;5033188;28;20199;-72
2020/12/17 05:52:20;;;;;;;28.07;18.17;;;3.80;99.90;;;;;;5033303;28;20176;-72
2020/12/17 05:54:52;;;;;;;26.80;16.80;;;3.80;99.90;;;;;;5033194;28;20171;-72
2020/12/17 05:57:18;;;;;;;33.80;20.07;;;3.80;99.90;;;;;;5033471;28;20421;-72
2020/12/17 05:59:55;;;;;;;30.60;17.70;;;3.80;99.90;;;;;;5033037;28;20422;-72
2020/12/17 06:02:29;;;;;;;23.43;17.57;;;3.80;99.90;;;;;;5032169;28;20179;-72
2020/12/17 06:05:12;;;;;;;29.80;18.37;;;3.70;99.90;;;;;;5033056;28;20548;-73
2020/12/17 06:07:51;;;;;;;30.63;18.20;;;3.70;99.90;;;;;;5031573;28;20430;-72
2020/12/17 06:10:45;;;;;;;27.10;17.33;;;3.70;99.90;;;;;;5031262;28;20434;-71
2020/12/17 06:13:13;;;;;;;30.73;19.03;;;3.70;99.90;;;;;;5032588;28;20418;-72
2020/12/17 06:15:39;;;;;;;29.17;17.87;;;3.70;99.90;;;;;;5032988;28;20418;-72
2020/12/17 06:18:10;;;;;;;29.00;15.57;;;3.70;99.90;;;;;;5032808;28;20455;-72
2020/12/17 06:20:35;;;;;;;30.77;17.00;;;3.70;99.90;;;;;;5032414;28;20196;-72
2020/12/17 06:23:08;;;;;;;33.70;19.07;;;3.60;99.90;;;;;;5033168;28;20467;-72
2020/12/17 06:25:36;;;;;;;31.20;19.10;;;3.60;99.90;;;;;;5032718;28;20179;-72
2020/12/17 06:28:02;;;;;;;26.17;19.43;;;3.60;99.90;;;;;;5032446;28;20416;-72
2020/12/17 06:30:30;;;;;;;33.10;20.40;;;3.60;99.90;;;;;;5032636;28;20529;-73
2020/12/17 06:32:57;;;;;;;25.87;17.80;;;3.60;99.90;;;;;;5031126;28;20469;-73
2020/12/17 06:35:40;;;;;;;30.10;19.47;;;3.60;99.90;;;;;;5032049;28;20419;-72
2020/12/17 06:38:11;;;;;;;37.67;18.90;;;3.60;99.90;;;;;;5032318;28;20446;-72
2020/12/17 06:40:38;;;;;;;27.27;17.90;;;3.60;99.90;;;;;;5032629;28;20775;-73
2020/12/17 06:43:12;;;;;;;30.67;18.30;;;3.50;99.90;;;;;;5032334;28;20450;-72
2020/12/17 06:45:38;;;;;;;24.83;17.20;;;3.60;99.90;;;;;;5032187;28;20402;-73
2020/12/17 06:48:29;;;;;;;30.33;16.40;;;3.60;99.90;;;;;;5031034;28;20472;-73
2020/12/17 06:50:55;;;;;;;31.50;19.10;;;3.50;99.90;;;;;;5032623;28;20409;-72
2020/12/17 06:53:39;;;;;;;32.10;18.60;;;3.50;99.90;;;;;;5032558;28;20406;-72
2020/12/17 06:56:05;;;;;;;28.30;17.80;;;3.50;99.90;;;;;;5032312;28;20414;-72
2020/12/17 06:58:30;;;;;;;27.10;17.40;;;3.50;99.90;;;;;;5032875;28;20418;-72
2020/12/17 07:00:56;;;;;;;28.07;17.53;;;3.50;99.90;;;;;;5032980;28;20172;-73
2020/12/17 07:03:43;;;;;;;32.30;17.93;;;3.50;99.90;;;;;;5032591;28;20249;-72
2020/12/17 07:06:22;;;;;;;25.63;17.33;;;3.50;99.90;;;;;;5032721;28;20195;-72
2020/12/17 07:08:50;;;;;;;29.83;18.90;;;3.50;99.90;;;;;;5032099;28;20548;-73
2020/12/17 07:11:46;;;;;;;27.17;17.77;;;3.50;99.90;;;;;;5030761;28;20426;-72
2020/12/17 07:14:27;;;;;;;28.47;18.27;;;3.50;99.90;;;;;;5031761;28;20497;-73
2020/12/17 07:16:57;;;;;;;31.23;18.97;;;3.60;99.90;;;;;;5031195;28;20424;-73
2020/12/17 07:19:38;;;;;;;27.30;18.00;;;3.60;99.90;;;;;;5031401;28;20576;-72
2020/12/17 07:22:14;;;;;;;28.57;16.27;;;3.60;99.90;;;;;;5030650;28;20417;-72
2020/12/17 07:24:45;;;;;;;25.30;17.10;;;3.60;99.90;;;;;;5031789;28;20461;-72
2020/12/17 07:27:25;;;;;;;23.20;16.77;;;3.70;99.90;;;;;;5029959;28;20543;-71
2020/12/17 07:30:06;;;;;;;33.13;18.50;;;3.80;99.90;;;;;;5031574;28;20426;-72
2020/12/17 07:32:34;;;;;;;30.63;15.97;;;3.80;99.90;;;;;;5031888;28;20406;-72
2020/12/17 07:35:16;;;;;;;24.37;17.73;;;3.90;99.90;;;;;;5031878;28;20406;-72
2020/12/17 07:38:00;;;;;;;31.77;18.27;;;4.00;99.90;;;;;;5031559;28;20418;-72
2020/12/17 07:40:31;;;;;;;35.03;20.70;;;4.10;99.90;;;;;;5031811;28;20422;-72
2020/12/17 07:43:08;;;;;;;28.70;17.17;;;4.10;99.90;;;;;;5031604;28;20803;-72
2020/12/17 07:45:43;;;;;;;27.93;16.40;;;4.20;99.90;;;;;;5031620;28;20890;-72
2020/12/17 07:48:42;;;;;;;27.30;17.20;;;4.30;99.90;;;;;;5031013;28;20809;-72
2020/12/17 07:51:14;;;;;;;31.90;18.23;;;4.30;99.90;;;;;;5031755;28;20898;-72
2020/12/17 07:53:47;;;;;;;29.80;18.33;;;4.40;99.90;;;;;;5031184;28;20402;-72
2020/12/17 07:56:13;;;;;;;32.33;17.50;;;4.50;99.90;;;;;;5031721;28;20398;-74
2020/12/17 07:58:40;;;;;;;26.00;17.17;;;4.50;99.90;;;;;;5031246;28;20929;-72
2020/12/17 08:01:06;;;;;;;31.47;18.80;;;4.70;99.90;;;;;;5031488;28;21030;-74
2020/12/17 08:03:50;;;;;;;26.67;16.53;;;4.60;99.90;;;;;;5032200;28;20465;-76
2020/12/17 08:06:21;;;;;;;24.77;16.33;;;4.70;99.90;;;;;;5031759;28;20406;-73
2020/12/17 08:08:51;;;;;;;29.70;20.93;;;4.60;99.90;;;;;;5031596;28;20434;-73
2020/12/17 08:11:16;;;;;;;29.43;16.93;;;4.70;99.90;;;;;;5035607;28;20453;-72
2020/12/17 08:13:42;;;;;;;27.27;17.53;;;4.70;99.90;;;;;;5035117;28;20819;-71
2020/12/17 08:16:08;;;;;;;25.10;15.70;;;4.70;99.90;;;;;;5035028;28;20258;-75
2020/12/17 08:18:36;;;;;;;23.90;16.90;;;4.80;99.90;;;;;;5032641;28;20202;-71
2020/12/17 08:21:12;;;;;;;30.53;16.87;;;4.80;99.90;;;;;;5034795;28;20410;-71
2020/12/17 08:23:39;;;;;;;28.03;17.07;;;4.90;99.90;;;;;;5034438;28;20942;-71
2020/12/17 08:26:06;;;;;;;28.93;15.80;;;4.90;99.90;;;;;;5028149;28;20826;-72
2020/12/17 08:28:33;;;;;;;23.73;16.87;;;4.80;99.90;;;;;;5034069;28;20521;-72
2020/12/17 08:31:10;;;;;;;23.30;16.27;;;4.80;99.90;;;;;;5033604;28;20819;-72
2020/12/17 08:33:41;;;;;;;33.10;16.00;;;4.90;99.90;;;;;;5030778;28;20425;-72
2020/12/17 08:36:12;;;;;;;27.20;16.63;;;4.90;99.90;;;;;;5034152;28;20825;-72
2020/12/17 08:38:38;;;;;;;22.23;14.93;;;4.90;99.90;;;;;;5033927;28;20431;-72
2020/12/17 08:41:06;;;;;;;23.60;15.47;;;5.00;99.90;;;;;;5034199;28;20460;-72
2020/12/17 08:43:44;;;;;;;25.40;16.90;;;5.00;99.90;;;;;;5034448;28;20450;-72
2020/12/17 08:46:14;;;;;;;25.93;15.67;;;5.10;99.90;;;;;;5034486;28;20449;-72
2020/12/17 08:48:40;;;;;;;23.90;18.13;;;5.10;99.90;;;;;;5034067;28;20417;-72
2020/12/17 08:51:10;;;;;;;21.00;14.90;;;5.10;99.90;;;;;;5034118;28;20409;-73
2020/12/17 08:53:40;;;;;;;23.17;15.27;;;5.10;99.90;;;;;;5033854;28;20409;-72
2020/12/17 08:56:14;;;;;;;22.60;16.00;;;5.10;99.90;;;;;;5034183;28;20449;-72
2020/12/17 08:58:48;;;;;;;25.60;15.13;;;5.10;99.90;;;;;;5034095;28;20479;-72
2020/12/17 09:01:33;;;;;;;22.27;15.87;;;5.20;99.90;;;;;;5034151;28;20750;-72
2020/12/17 09:04:04;;;;;;;24.63;16.10;;;5.20;99.90;;;;;;5034314;28;20828;-72
2020/12/17 09:06:31;;;;;;;28.10;16.10;;;5.20;99.90;;;;;;5034063;28;20406;-72
2020/12/17 09:09:15;;;;;;;21.80;13.90;;;5.30;99.90;;;;;;5033598;28;20537;-72
2020/12/17 09:11:44;;;;;;;19.97;13.60;;;5.30;99.90;;;;;;5034066;28;20403;-73
2020/12/17 09:14:10;;;;;;;18.60;12.00;;;5.40;99.90;;;;;;5034676;28;20815;-72
2020/12/17 09:16:39;;;;;;;22.17;15.00;;;5.40;99.90;;;;;;5034632;28;20452;-72
2020/12/17 09:19:07;;;;;;;21.43;13.77;;;5.40;99.90;;;;;;5034259;28;20430;-72
2020/12/17 09:21:54;;;;;;;22.80;15.93;;;5.50;99.90;;;;;;5033799;28;20944;-72
2020/12/17 09:24:33;;;;;;;22.33;15.67;;;5.50;99.90;;;;;;5033656;28;20560;-72
2020/12/17 09:27:21;;;;;;;22.93;16.23;;;5.50;99.90;;;;;;5033947;28;20747;-72
2020/12/17 09:30:01;;;;;;;17.00;11.93;;;5.50;99.90;;;;;;5033608;28;20837;-72
2020/12/17 09:32:28;;;;;;;23.37;13.77;;;5.70;99.90;;;;;;5032056;28;20406;-72
2020/12/17 09:35:05;;;;;;;19.20;13.07;;;5.70;99.90;;;;;;5033327;28;20527;-72
2020/12/17 09:37:31;;;;;;;32.03;14.67;;;5.80;99.90;;;;;;5013647;28;20829;-72
2020/12/17 09:39:56;;;;;;;24.43;15.70;;;5.80;99.90;;;;;;5013531;28;20476;-72
2020/12/17 09:42:23;;;;;;;22.77;15.80;;;5.70;99.90;;;;;;5025073;28;20452;-72
2020/12/17 09:44:49;;;;;;;20.77;15.23;;;5.70;99.90;;;;;;5033093;28;20610;-72
2020/12/17 09:47:28;;;;;;;22.03;13.60;;;5.70;99.90;;;;;;5033129;28;20497;-72
2020/12/17 09:49:54;;;;;;;23.20;15.20;;;5.80;99.90;;;;;;5033293;28;20364;-72
2020/12/17 09:52:25;;;;;;;19.83;13.03;;;5.80;99.90;;;;;;5033177;28;20985;-72
2020/12/17 09:54:50;;;;;;;20.67;15.03;;;5.80;99.90;;;;;;5033072;28;20171;-72
2020/12/17 09:57:16;;;;;;;21.77;14.23;;;5.80;99.90;;;;;;5032938;28;20790;-73
2020/12/17 09:59:44;;;;;;;24.53;15.30;;;5.90;99.90;;;;;;5033129;28;20216;-72
2020/12/17 10:02:12;;;;;;;26.60;14.73;;;5.90;99.90;;;;;;5033385;28;20278;-73
2020/12/17 10:04:39;;;;;;;18.93;13.33;;;6.10;99.90;;;;;;5032883;28;20462;-72
2020/12/17 10:07:06;;;;;;;18.80;14.10;;;6.10;99.90;;;;;;5032954;28;20878;-73
2020/12/17 10:09:31;;;;;;;25.10;15.60;;;6.20;99.90;;;;;;5048418;28;20488;-72
2020/12/17 10:11:57;;;;;;;20.40;13.80;;;6.10;99.90;;;;;;5052536;28;20429;-72
2020/12/17 10:14:23;;;;;;;22.23;14.13;;;6.10;99.90;;;;;;5052727;28;20167;-72
2020/12/17 10:16:54;;;;;;;22.93;15.10;;;6.30;99.90;;;;;;5052607;28;20479;-72
2020/12/17 10:19:22;;;;;;;23.60;14.20;;;6.30;99.90;;;;;;5052468;28;20483;-72
2020/12/17 10:21:48;;;;;;;19.37;13.20;;;6.30;99.90;;;;;;5052577;28;20410;-72
2020/12/17 10:24:14;;;;;;;17.80;13.53;;;6.40;99.90;;;;;;5052349;28;20453;-72
2020/12/17 10:26:39;;;;;;;18.67;12.97;;;6.40;99.90;;;;;;5052215;28;20246;-73
2020/12/17 10:29:04;;;;;;;22.57;15.13;;;6.50;99.90;;;;;;5053174;28;20198;-73
2020/12/17 10:31:30;;;;;;;23.63;14.60;;;6.50;99.90;;;;;;5052063;28;20254;-72
2020/12/17 10:33:56;;;;;;;23.37;13.83;;;6.60;99.90;;;;;;5040267;28;20167;-75
2020/12/17 10:36:24;;;;;;;21.30;12.87;;;6.50;99.90;;;;;;5032620;28;20198;-73
2020/12/17 10:38:51;;;;;;;20.90;14.07;;;6.50;99.90;;;;;;5032364;28;20425;-72
2020/12/17 10:41:26;;;;;;;18.50;12.70;;;6.50;99.90;;;;;;5032945;28;20410;-72
2020/12/17 10:43:53;;;;;;;20.23;13.53;;;6.50;99.90;;;;;;5032130;28;20457;-71
2020/12/17 10:46:18;;;;;;;22.00;14.10;;;6.60;99.90;;;;;;5032081;28;20505;-72
2020/12/17 10:48:44;;;;;;;21.27;13.60;;;6.70;99.90;;;;;;5031991;28;20500;-75
2020/12/17 10:51:15;;;;;;;21.13;13.13;;;6.70;99.90;;;;;;5032060;28;20591;-72
2020/12/17 10:53:42;;;;;;;18.50;13.10;;;6.80;99.90;;;;;;5032022;28;20759;-74
2020/12/17 10:56:11;;;;;;;21.70;13.40;;;6.80;99.90;;;;;;5031899;28;20403;-72
2020/12/17 10:58:37;;;;;;;22.57;14.10;;;6.80;99.90;;;;;;5031829;28;20430;-73
2020/12/17 11:01:04;;;;;;;18.33;12.30;;;6.80;99.90;;;;;;5032452;28;20783;-72
2020/12/17 11:03:29;;;;;;;19.97;13.67;;;6.80;99.90;;;;;;5031878;28;20452;-72
2020/12/17 11:05:56;;;;;;;19.10;12.13;;;6.90;99.90;;;;;;5031832;28;20410;-73
2020/12/17 11:08:22;;;;;;;20.47;13.03;;;6.90;99.90;;;;;;5031561;28;20210;-72
2020/12/17 11:10:48;;;;;;;20.93;13.80;;;6.90;99.90;;;;;;5031697;28;20416;-72
2020/12/17 11:13:14;;;;;;;20.83;13.43;;;6.80;99.90;;;;;;5031950;28;20505;-72
2020/12/17 11:15:41;;;;;;;17.30;12.33;;;6.90;99.90;;;;;;5031956;28;20167;-72
2020/12/17 11:18:06;;;;;;;16.77;12.10;;;6.90;99.90;;;;;;5031623;28;20768;-72
2020/12/17 11:20:31;;;;;;;19.43;13.17;;;7.00;99.90;;;;;;5031729;28;20430;-72
2020/12/17 11:22:57;;;;;;;18.93;12.37;;;7.20;99.90;;;;;;5031942;28;20203;-73
2020/12/17 11:25:22;;;;;;;17.30;12.40;;;7.20;99.90;;;;;;5032078;28;20225;-72
2020/12/17 11:27:49;;;;;;;17.83;12.33;;;7.20;99.90;;;;;;5032064;28;20210;-72
2020/12/17 11:30:14;;;;;;;19.50;12.40;;;7.20;99.90;;;;;;5032125;28;20267;-72
2020/12/17 11:32:40;;;;;;;17.03;11.50;;;7.30;99.90;;;;;;5030677;28;20987;-72
2020/12/17 11:35:07;;;;;;;17.13;12.77;;;7.20;99.90;;;;;;5032247;28;20205;-73
2020/12/17 11:37:33;;;;;;;16.93;11.17;;;7.20;99.90;;;;;;5031967;28;20578;-72
2020/12/17 11:40:00;;;;;;;13.23;11.47;;;7.20;99.90;;;;;;5031987;28;20532;-73
2020/12/17 11:42:25;;;;;;;17.20;11.90;;;7.30;99.90;;;;;;5031830;28;20778;-74
2020/12/17 11:44:51;;;;;;;17.50;10.60;;;7.40;99.90;;;;;;5035463;28;20464;-72
2020/12/17 11:47:16;;;;;;;15.30;10.43;;;7.40;99.90;;;;;;5035782;28;20606;-72
2020/12/17 11:49:42;;;;;;;20.13;11.80;;;7.40;99.90;;;;;;5035552;28;20214;-73
2020/12/17 11:52:08;;;;;;;17.40;11.27;;;7.60;99.90;;;;;;5036077;28;20168;-73
2020/12/17 11:54:33;;;;;;;15.90;11.07;;;7.70;99.90;;;;;;5035712;28;20694;-73
2020/12/17 11:56:59;;;;;;;17.33;10.90;;;7.70;99.90;;;;;;5035520;28;20447;-73
2020/12/17 11:59:24;;;;;;;17.50;9.73;;;7.80;99.90;;;;;;5035553;28;20656;-73
2020/12/17 12:01:50;;;;;;;18.27;10.47;;;7.90;99.90;;;;;;5034680;28;20175;-73
2020/12/17 12:04:15;;;;;;;14.13;10.20;;;7.90;99.90;;;;;;5036731;28;20215;-73
2020/12/17 12:06:41;;;;;;;14.77;10.23;;;7.90;99.90;;;;;;5037293;28;20167;-73
2020/12/17 12:09:07;;;;;;;16.50;11.00;;;7.90;99.90;;;;;;5037592;28;20207;-74
2020/12/17 12:11:33;;;;;;;15.63;11.67;;;7.90;99.90;;;;;;5015627;28;20875;-73
2020/12/17 12:14:06;;;;;;;15.93;10.97;;;7.90;99.90;;;;;;5021021;28;20189;-73
2020/12/17 12:16:32;;;;;;;15.83;10.43;;;7.90;99.90;;;;;;5055366;28;21068;-74
2020/12/17 12:19:00;;;;;;;20.40;11.43;;;7.90;99.90;;;;;;5054949;28;20757;-74
2020/12/17 12:21:25;;;;;;;13.27;9.60;;;7.90;99.90;;;;;;5055006;28;20186;-73
2020/12/17 12:23:51;;;;;;;14.20;10.10;;;8.00;99.90;;;;;;5054148;28;20956;-72
2020/12/17 12:26:16;;;;;;;11.87;9.97;;;8.00;99.90;;;;;;5054726;28;20171;-72
2020/12/17 12:28:42;;;;;;;15.73;10.53;;;8.00;99.90;;;;;;5054905;28;20198;-73
2020/12/17 12:31:13;;;;;;;15.87;11.17;;;8.10;99.90;;;;;;5054715;28;20159;-74
2020/12/17 12:33:38;;;;;;;15.70;10.13;;;8.10;99.90;;;;;;5040573;28;20442;-73
2020/12/17 12:36:06;;;;;;;14.17;9.90;;;8.10;99.90;;;;;;5034443;28;20449;-73
2020/12/17 12:38:31;;;;;;;14.10;10.33;;;8.10;99.90;;;;;;5034750;28;20633;-73
2020/12/17 12:40:57;;;;;;;16.37;10.77;;;8.20;99.90;;;;;;5034485;28;20402;-73
2020/12/17 12:43:23;;;;;;;13.90;10.13;;;8.30;99.90;;;;;;5034040;28;20611;-73